Terminal Aerodrome Forecast
Issued by NWS Wilmington, NC

Home | Current Version | Previous Version | Text Only | Print | Product List | Glossary On
Versions: 1 2 3 4 5 6 7 8 9 10 11 12 13 14 15
025
FTUS42 KILM 300544
TAFLBT
TAF
KLBT 300544Z 3006/0106 18008KT P6SM SCT008
      TEMPO 3006/3010 BKN008 BKN015
     FM301300 20006KT P6SM SCT015 BKN025
     FM301600 19010G19KT P6SM SCT045
     FM302200 18010G19KT P6SM SCT250
     FM010200 17009KT P6SM FEW008=

USA.gov is the U.S. government's official web portal to all federal, state and local government web resources and services.